Time;durP1;ratioP1;P1;durP2;ratioP2;P2;SDS_P1;SDS_P2;PMS_P1;PMS_P2;Temp;Humidity;BMP_temperature;BMP_pressure;BME280_temperature;BME280_humidity;BME280_pressure;Samples;Min_cycle;Max_cycle;Signal;HPM_P1;HPM_P2
2022/11/21 00:00:46;;;;;;;121.40;67.40;;;;;;;;;;5076391;28;20027;-72
2022/11/21 00:03:12;;;;;;;120.85;65.25;;;;;;;;;;5076669;28;20498;-73
2022/11/21 00:05:39;;;;;;;121.85;63.88;;;;;;;;;;5076542;28;20020;-73
2022/11/21 00:08:04;;;;;;;107.47;62.20;;;;;;;;;;5076700;28;20017;-71
2022/11/21 00:10:31;;;;;;;121.82;64.40;;;;;;;;;;5058468;28;20017;-71
2022/11/21 00:12:56;;;;;;;121.25;63.33;;;;;;;;;;5076560;28;20368;-73
2022/11/21 00:15:23;;;;;;;116.35;64.57;;;;;;;;;;5058606;28;20103;-73
2022/11/21 00:17:49;;;;;;;135.00;71.18;;;;;;;;;;5058299;28;20024;-73
2022/11/21 00:20:15;;;;;;;130.13;69.65;;;;;;;;;;5076172;28;20020;-73
2022/11/21 00:22:40;;;;;;;120.38;67.72;;;;;;;;;;5058017;28;20530;-73
2022/11/21 00:25:06;;;;;;;123.80;65.47;;;;;;;;;;5076212;28;20094;-73
2022/11/21 00:27:31;;;;;;;119.63;65.90;;;;;;;;;;5057576;28;20351;-72
2022/11/21 00:29:57;;;;;;;120.10;64.45;;;;;;;;;;5076378;28;20012;-73
2022/11/21 00:32:23;;;;;;;112.70;62.83;;;;;;;;;;5076175;28;20391;-73
2022/11/21 00:34:48;;;;;;;116.22;64.40;;;;;;;;;;5075922;28;20095;-73
2022/11/21 00:37:14;;;;;;;118.05;65.00;;;;;;;;;;5075797;28;20097;-74
2022/11/21 00:39:39;;;;;;;116.82;63.38;;;;;;;;;;5075851;28;20022;-74
2022/11/21 00:42:04;;;;;;;122.55;67.82;;;;;;;;;;5075793;28;20454;-73
2022/11/21 00:44:30;;;;;;;123.68;67.47;;;;;;;;;;5075922;28;20052;-73
2022/11/21 00:46:55;;;;;;;123.30;67.00;;;;;;;;;;5075606;28;20120;-73
2022/11/21 00:49:21;;;;;;;134.15;71.88;;;;;;;;;;5057985;28;20078;-74
2022/11/21 00:51:46;;;;;;;137.13;74.03;;;;;;;;;;5075687;28;20494;-73
2022/11/21 00:54:11;;;;;;;135.85;71.78;;;;;;;;;;5075562;28;20024;-73
2022/11/21 00:56:37;;;;;;;146.45;74.60;;;;;;;;;;5075458;28;20075;-73
2022/11/21 00:59:02;;;;;;;119.10;62.53;;;;;;;;;;5075153;28;20020;-73
2022/11/21 01:01:28;;;;;;;107.22;55.90;;;;;;;;;;5075434;28;20021;-73
2022/11/21 01:03:53;;;;;;;103.40;56.15;;;;;;;;;;5075455;28;20450;-72
2022/11/21 01:06:19;;;;;;;95.70;53.20;;;;;;;;;;5075360;28;20032;-72
2022/11/21 01:08:44;;;;;;;91.13;51.08;;;;;;;;;;5057066;28;20025;-73
2022/11/21 01:11:12;;;;;;;86.28;47.08;;;;;;;;;;5074818;28;20033;-72
2022/11/21 01:13:38;;;;;;;94.70;52.80;;;;;;;;;;5074879;28;20066;-72
2022/11/21 01:16:10;;;;;;;102.85;55.95;;;;;;;;;;5075262;28;20417;-72
2022/11/21 01:18:35;;;;;;;96.70;52.65;;;;;;;;;;5075253;28;20043;-73
2022/11/21 01:21:14;;;;;;;94.10;52.45;;;;;;;;;;5074625;28;20028;-72
2022/11/21 01:23:40;;;;;;;98.15;53.20;;;;;;;;;;5040432;28;20485;-73
2022/11/21 01:26:07;;;;;;;94.18;51.35;;;;;;;;;;5056837;28;20021;-72
2022/11/21 01:28:32;;;;;;;94.45;51.95;;;;;;;;;;5074676;28;20138;-71
2022/11/21 01:31:05;;;;;;;91.40;49.42;;;;;;;;;;5074734;28;20023;-71
2022/11/21 01:33:30;;;;;;;78.05;44.78;;;;;;;;;;5074897;28;20056;-70
2022/11/21 01:35:56;;;;;;;71.28;43.33;;;;;;;;;;5074387;28;20494;-71
2022/11/21 01:38:21;;;;;;;68.68;40.90;;;;;;;;;;5074646;28;20066;-72
2022/11/21 01:40:46;;;;;;;67.00;39.05;;;;;;;;;;5056893;28;20055;-72
2022/11/21 01:43:13;;;;;;;71.20;39.30;;;;;;;;;;5056519;28;20028;-72
2022/11/21 01:45:54;;;;;;;68.95;38.72;;;;;;;;;;5074268;28;20036;-72
2022/11/21 01:48:23;;;;;;;66.38;37.92;;;;;;;;;;5074417;28;20103;-72
2022/11/21 01:50:50;;;;;;;63.92;36.85;;;;;;;;;;5074344;28;20023;-72
2022/11/21 01:53:15;;;;;;;64.80;35.75;;;;;;;;;;5074497;28;20056;-73
2022/11/21 01:55:41;;;;;;;62.78;34.90;;;;;;;;;;5074474;28;20055;-72
2022/11/21 01:58:06;;;;;;;62.67;35.35;;;;;;;;;;5074352;28;20466;-71
2022/11/21 02:00:36;;;;;;;58.63;34.28;;;;;;;;;;5074104;28;20070;-72
2022/11/21 02:03:06;;;;;;;60.80;34.47;;;;;;;;;;5073970;28;20035;-71
2022/11/21 02:05:34;;;;;;;62.65;34.08;;;;;;;;;;5074609;28;20470;-72
2022/11/21 02:08:05;;;;;;;59.85;34.25;;;;;;;;;;5074662;28;20086;-71
2022/11/21 02:10:31;;;;;;;61.45;33.22;;;;;;;;;;5074365;28;20355;-72
2022/11/21 02:12:57;;;;;;;58.75;33.72;;;;;;;;;;5074084;28;20055;-72
2022/11/21 02:15:24;;;;;;;56.30;33.47;;;;;;;;;;5074214;28;20060;-71
2022/11/21 02:17:49;;;;;;;56.90;33.65;;;;;;;;;;5056567;28;20351;-71
2022/11/21 02:20:16;;;;;;;56.53;32.85;;;;;;;;;;5074488;28;20037;-72
2022/11/21 02:22:50;;;;;;;58.35;33.47;;;;;;;;;;5074318;28;20032;-72
2022/11/21 02:25:17;;;;;;;70.10;37.97;;;;;;;;;;5074289;28;20020;-71
2022/11/21 02:27:43;;;;;;;67.47;37.30;;;;;;;;;;5074328;28;20055;-72
2022/11/21 02:30:09;;;;;;;65.88;39.28;;;;;;;;;;5074170;28;20060;-71
2022/11/21 02:32:35;;;;;;;66.85;39.53;;;;;;;;;;5073979;28;20028;-72
2022/11/21 02:35:01;;;;;;;64.30;38.35;;;;;;;;;;5074133;28;20029;-71
2022/11/21 02:37:26;;;;;;;65.72;37.13;;;;;;;;;;5056256;28;20454;-72
2022/11/21 02:39:52;;;;;;;66.72;36.58;;;;;;;;;;5074239;28;20035;-72
2022/11/21 02:42:23;;;;;;;62.45;36.28;;;;;;;;;;5074272;28;20107;-71
2022/11/21 02:45:00;;;;;;;61.60;35.17;;;;;;;;;;5055954;28;20060;-71
2022/11/21 02:47:26;;;;;;;60.40;35.28;;;;;;;;;;5056128;28;20023;-71
2022/11/21 02:49:52;;;;;;;63.95;35.60;;;;;;;;;;5073376;28;20048;-71
2022/11/21 02:52:17;;;;;;;57.65;34.00;;;;;;;;;;5073687;28;20367;-72
2022/11/21 02:54:42;;;;;;;63.70;34.65;;;;;;;;;;5073898;28;20017;-71
2022/11/21 02:57:08;;;;;;;60.20;35.08;;;;;;;;;;5074148;28;20036;-71
2022/11/21 02:59:33;;;;;;;58.53;34.03;;;;;;;;;;5073916;28;20028;-71
2022/11/21 03:01:59;;;;;;;63.92;35.03;;;;;;;;;;5055972;28;20028;-71
2022/11/21 03:04:25;;;;;;;60.38;34.10;;;;;;;;;;5079466;22;20442;-72
2022/11/21 03:06:51;;;;;;;59.85;33.33;;;;;;;;;;5055878;28;20376;-71
2022/11/21 03:09:17;;;;;;;59.25;34.03;;;;;;;;;;5055934;28;20123;-71
2022/11/21 03:11:42;;;;;;;62.95;35.92;;;;;;;;;;5073686;28;20108;-71
2022/11/21 03:14:07;;;;;;;63.03;35.08;;;;;;;;;;5073581;28;20062;-72
2022/11/21 03:16:33;;;;;;;62.20;35.10;;;;;;;;;;5056024;28;20044;-71
2022/11/21 03:18:58;;;;;;;59.60;33.08;;;;;;;;;;5055734;28;20117;-71
2022/11/21 03:21:24;;;;;;;59.88;32.72;;;;;;;;;;5073699;28;20024;-71
2022/11/21 03:23:49;;;;;;;51.92;30.50;;;;;;;;;;5039135;28;20028;-72
2022/11/21 03:26:14;;;;;;;48.60;29.40;;;;;;;;;;5073471;28;20024;-72
2022/11/21 03:28:41;;;;;;;50.15;29.13;;;;;;;;;;5055568;28;20041;-72
2022/11/21 03:31:06;;;;;;;51.70;28.75;;;;;;;;;;5055730;28;20103;-72
2022/11/21 03:33:31;;;;;;;52.72;29.58;;;;;;;;;;5073240;28;20031;-72
2022/11/21 03:35:57;;;;;;;50.00;28.67;;;;;;;;;;5073623;28;20090;-72
2022/11/21 03:38:22;;;;;;;48.10;28.80;;;;;;;;;;5073552;28;20451;-72
2022/11/21 03:40:48;;;;;;;48.95;27.48;;;;;;;;;;5073578;28;20029;-72
2022/11/21 03:43:13;;;;;;;47.67;27.75;;;;;;;;;;5073488;28;20017;-72
2022/11/21 03:45:38;;;;;;;44.30;25.85;;;;;;;;;;5073735;28;20120;-72
2022/11/21 03:48:04;;;;;;;47.22;26.95;;;;;;;;;;5073299;28;20071;-72
2022/11/21 03:50:29;;;;;;;42.90;24.90;;;;;;;;;;5073852;28;20439;-72
2022/11/21 03:52:55;;;;;;;41.25;25.58;;;;;;;;;;5074953;28;20107;-71
2022/11/21 03:55:20;;;;;;;46.60;26.85;;;;;;;;;;5073736;28;20031;-70
2022/11/21 03:57:46;;;;;;;46.85;26.10;;;;;;;;;;5073674;28;20016;-71
2022/11/21 04:00:12;;;;;;;41.25;25.23;;;;;;;;;;5073187;28;20454;-71
2022/11/21 04:02:38;;;;;;;42.00;24.92;;;;;;;;;;5075888;28;20104;-71
2022/11/21 04:05:05;;;;;;;40.03;23.38;;;;;;;;;;5076676;28;20037;-70
2022/11/21 04:07:30;;;;;;;39.78;23.88;;;;;;;;;;5076528;28;20039;-70
2022/11/21 04:09:57;;;;;;;42.58;24.35;;;;;;;;;;5058708;28;20028;-71
2022/11/21 04:12:22;;;;;;;45.17;26.98;;;;;;;;;;5076533;28;20024;-73
2022/11/21 04:14:47;;;;;;;48.15;27.75;;;;;;;;;;5076392;28;20039;-73
2022/11/21 04:17:13;;;;;;;56.13;31.25;;;;;;;;;;5058819;28;20401;-74
2022/11/21 04:19:39;;;;;;;54.58;29.98;;;;;;;;;;5076402;28;20032;-73
2022/11/21 04:22:04;;;;;;;49.15;28.98;;;;;;;;;;5058622;28;20024;-72
2022/11/21 04:24:30;;;;;;;52.40;28.42;;;;;;;;;;5076391;28;20074;-73
2022/11/21 04:26:55;;;;;;;48.42;27.80;;;;;;;;;;5076531;28;20016;-73
2022/11/21 04:29:20;;;;;;;49.40;29.10;;;;;;;;;;5076480;28;20024;-73
2022/11/21 04:31:46;;;;;;;47.28;26.70;;;;;;;;;;5076429;28;20112;-73
2022/11/21 04:34:11;;;;;;;41.85;23.67;;;;;;;;;;5076479;28;20063;-74
2022/11/21 04:36:36;;;;;;;35.97;22.75;;;;;;;;;;5076166;28;20385;-74
2022/11/21 04:39:02;;;;;;;45.40;30.08;;;;;;;;;;5058174;28;20043;-74
2022/11/21 04:41:27;;;;;;;56.38;30.33;;;;;;;;;;5076162;28;20024;-74
2022/11/21 04:43:55;;;;;;;57.58;32.60;;;;;;;;;;5075769;28;20032;-73
2022/11/21 04:46:21;;;;;;;57.60;32.97;;;;;;;;;;5076153;28;20431;-72
2022/11/21 04:48:47;;;;;;;62.85;34.42;;;;;;;;;;5075806;28;20020;-74
2022/11/21 04:51:12;;;;;;;50.50;30.10;;;;;;;;;;5058097;28;20013;-75
2022/11/21 04:53:37;;;;;;;54.92;31.70;;;;;;;;;;5057762;28;20355;-75
2022/11/21 04:56:04;;;;;;;51.22;28.75;;;;;;;;;;5075575;28;20169;-75
2022/11/21 04:58:29;;;;;;;37.08;23.15;;;;;;;;;;5076111;28;20453;-72
2022/11/21 05:00:55;;;;;;;36.85;21.27;;;;;;;;;;5075320;28;20021;-71
2022/11/21 05:03:20;;;;;;;38.33;22.38;;;;;;;;;;5075181;28;20020;-73
2022/11/21 05:05:46;;;;;;;38.42;22.65;;;;;;;;;;5075057;28;20036;-72
2022/11/21 05:08:11;;;;;;;41.25;25.08;;;;;;;;;;5075446;28;20029;-73
2022/11/21 05:13:19;;;;;;;42.83;26.88;;;;;;;;;;5075285;28;20070;-73
2022/11/21 05:13:22;;;;;;;42.75;25.45;;;;;;;;;;5074838;28;20107;-72
2022/11/21 05:15:50;;;;;;;59.63;31.05;;;;;;;;;;5074643;28;20054;-72
2022/11/21 05:18:17;;;;;;;46.72;27.38;;;;;;;;;;5057330;28;20360;-72
2022/11/21 05:20:42;;;;;;;39.28;25.15;;;;;;;;;;5074739;28;20054;-75
2022/11/21 05:23:08;;;;;;;39.30;23.48;;;;;;;;;;5074526;28;20470;-74
2022/11/21 05:25:33;;;;;;;38.95;23.88;;;;;;;;;;5074741;28;20020;-73
2022/11/21 05:27:58;;;;;;;37.92;23.63;;;;;;;;;;5074670;28;20028;-73
2022/11/21 05:30:24;;;;;;;35.58;23.23;;;;;;;;;;5074570;28;20029;-72
2022/11/21 05:32:49;;;;;;;35.30;22.30;;;;;;;;;;5072693;28;20055;-71
2022/11/21 05:35:15;;;;;;;40.28;23.60;;;;;;;;;;5056078;28;20032;-71
2022/11/21 05:37:40;;;;;;;36.38;22.40;;;;;;;;;;5074068;28;20040;-71
2022/11/21 05:40:06;;;;;;;35.80;22.40;;;;;;;;;;5074053;28;20027;-72
2022/11/21 05:45:15;;;;;;;35.33;23.23;;;;;;;;;;5073248;28;20039;-72
2022/11/21 05:47:41;;;;;;;37.53;22.75;;;;;;;;;;5056354;28;20016;-72
2022/11/21 05:50:07;;;;;;;33.08;21.52;;;;;;;;;;5073972;28;20066;-72
2022/11/21 05:52:32;;;;;;;32.83;21.40;;;;;;;;;;5055943;28;20024;-72
2022/11/21 05:54:57;;;;;;;33.10;19.17;;;;;;;;;;5073714;28;20340;-71
2022/11/21 05:57:23;;;;;;;33.35;19.38;;;;;;;;;;5055838;28;20016;-72
2022/11/21 05:59:48;;;;;;;30.80;19.20;;;;;;;;;;5073435;28;20115;-73
2022/11/21 06:04:58;;;;;;;30.35;19.83;;;;;;;;;;5055731;28;20041;-72
2022/11/21 06:07:23;;;;;;;29.02;19.17;;;;;;;;;;5055768;28;20025;-72
2022/11/21 06:09:48;;;;;;;28.95;19.17;;;;;;;;;;5073707;28;20032;-72
2022/11/21 06:12:14;;;;;;;32.40;19.45;;;;;;;;;;5072477;28;20063;-73
2022/11/21 06:14:39;;;;;;;32.97;22.25;;;;;;;;;;5072492;28;20093;-72
2022/11/21 06:17:04;;;;;;;30.92;20.35;;;;;;;;;;5054932;28;20075;-72
2022/11/21 06:19:30;;;;;;;28.23;18.02;;;;;;;;;;5054837;28;20037;-72
2022/11/21 06:21:55;;;;;;;27.67;17.98;;;;;;;;;;5072563;28;20410;-73
2022/11/21 06:24:20;;;;;;;29.75;17.42;;;;;;;;;;5071525;28;20024;-73
2022/11/21 06:26:49;;;;;;;27.77;17.42;;;;;;;;;;5055441;28;20028;-73
2022/11/21 06:29:15;;;;;;;27.05;17.38;;;;;;;;;;5073202;28;20033;-72
2022/11/21 06:35:15;;;;;;;28.75;18.23;;;;;;;;;;5073978;28;20074;-70
2022/11/21 06:41:16;;;;;;;26.17;17.33;;;;;;;;;;5073644;28;20460;-70
2022/11/21 06:43:44;;;;;;;45.72;28.13;;;;;;;;;;5073044;28;20404;-72
2022/11/21 06:46:10;;;;;;;41.63;26.23;;;;;;;;;;5073298;28;20060;-72
2022/11/21 06:48:36;;;;;;;42.08;26.00;;;;;;;;;;5054810;28;20052;-72
2022/11/21 06:51:05;;;;;;;42.67;25.52;;;;;;;;;;5072818;28;20075;-72
2022/11/21 06:53:30;;;;;;;39.92;24.13;;;;;;;;;;5053856;28;20468;-72
2022/11/21 06:55:59;;;;;;;63.15;32.08;;;;;;;;;;5072944;28;20030;-72
2022/11/21 06:58:25;;;;;;;66.85;35.00;;;;;;;;;;5055409;28;20040;-72
2022/11/21 07:08:03;;;;;;;34.85;22.35;;;;;;;;;;5073707;28;20019;-72
2022/11/21 07:14:04;;;;;;;30.80;19.73;;;;;;;;;;5073620;28;20496;-72
2022/11/21 07:20:05;;;;;;;32.70;21.00;;;;;;;;;;5073600;28;20081;-72
2022/11/21 07:26:05;;;;;;;29.83;19.83;;;;;;;;;;5073484;28;20082;-72
2022/11/21 07:32:06;;;;;;;26.38;18.58;;;;;;;;;;5073423;28;20037;-70
2022/11/21 07:38:06;;;;;;;30.15;20.15;;;;;;;;;;5077243;28;20091;-72
2022/11/21 07:44:07;;;;;;;29.65;20.83;;;;;;;;;;5076807;28;20039;-72
2022/11/21 07:50:09;;;;;;;35.63;23.83;;;;;;;;;;5077028;28;20028;-71
2022/11/21 07:56:09;;;;;;;63.70;39.42;;;;;;;;;;5076955;28;20508;-71
2022/11/21 08:02:18;;;;;;;53.28;32.33;;;;;;;;;;5076713;28;20370;-72
2022/11/21 08:12:45;;;;;;;;;;;;;;;;;;5077086;28;20068;-72
2022/11/21 08:19:00;;;;;;;65.15;32.95;;;;;;;;;;5076435;28;20114;-72
2022/11/21 08:25:00;;;;;;;71.13;43.15;;;;;;;;;;5076426;28;20044;-72
2022/11/21 08:31:02;;;;;;;59.70;31.15;;;;;;;;;;5076304;28;20587;-72
2022/11/21 08:37:02;;;;;;;57.60;32.70;;;;;;;;;;5076219;28;20387;-72
2022/11/21 08:43:05;;;;;;;59.28;30.02;;;;;;;;;;5075936;28;20039;-72
2022/11/21 08:49:06;;;;;;;48.80;26.70;;;;;;;;;;5075739;28;20137;-71
2022/11/21 08:55:08;;;;;;;39.00;23.95;;;;;;;;;;5075818;28;20128;-72
2022/11/21 09:01:08;;;;;;;37.45;22.55;;;;;;;;;;5075923;28;20101;-72
2022/11/21 09:11:12;;;;;;;34.85;22.60;;;;;;;;;;5075578;28;20069;-73
2022/11/21 09:19:58;;;;;;;71.85;47.28;;;;;;;;;;5074727;28;20115;-73
2022/11/21 09:22:24;;;;;;;50.95;38.47;;;;;;;;;;5074742;28;20107;-73
2022/11/21 09:24:50;;;;;;;34.03;22.55;;;;;;;;;;5056932;28;20032;-73
2022/11/21 09:27:15;;;;;;;39.10;24.08;;;;;;;;;;5075444;28;20022;-73
2022/11/21 09:29:41;;;;;;;40.67;22.98;;;;;;;;;;5057009;28;20116;-73
2022/11/21 09:35:41;;;;;;;45.67;26.58;;;;;;;;;;5076901;28;20137;-74
2022/11/21 09:41:50;;;;;;;37.17;23.27;;;;;;;;;;5074982;28;20063;-73
2022/11/21 09:47:52;;;;;;;35.03;22.52;;;;;;;;;;5074919;28;20070;-74
2022/11/21 10:04:47;;;;;;;29.83;19.42;;;;;;;;;;5074596;28;20052;-73
2022/11/21 10:15:15;;;;;;;;;;;;;;;;;;5074913;28;20035;-73
2022/11/21 10:32:10;;;;;;;22.35;13.05;;;;;;;;;;5012499;28;20408;-71
2022/11/21 10:48:30;;;;;;;36.83;20.60;;;;;;;;;;4992344;28;20084;-72
2022/11/21 10:54:34;;;;;;;26.20;15.65;;;;;;;;;;4997558;28;20389;-73
2022/11/21 11:00:33;;;;;;;17.48;11.05;;;;;;;;;;5031694;28;20123;-72
2022/11/21 11:06:34;;;;;;;14.30;8.95;;;;;;;;;;5031825;28;20029;-74
2022/11/21 11:16:36;;;;;;;13.93;9.52;;;;;;;;;;5037614;28;20029;-72
2022/11/21 11:22:37;;;;;;;12.40;7.80;;;;;;;;;;5037377;28;20084;-71
2022/11/21 11:28:37;;;;;;;13.00;8.45;;;;;;;;;;5037343;28;20031;-71
2022/11/21 11:34:38;;;;;;;11.35;8.30;;;;;;;;;;5037470;28;20097;-72
2022/11/21 11:40:42;;;;;;;10.55;7.95;;;;;;;;;;5037305;28;20035;-73
2022/11/21 11:53:58;;;;;;;30.40;17.00;;;;;;;;;;4995706;28;20080;-73
2022/11/21 11:56:57;;;;;;;33.13;19.02;;;;;;;;;;4995547;28;20489;-73
2022/11/21 12:03:04;;;;;;;20.75;12.15;;;;;;;;;;4995319;28;20042;-73
2022/11/21 12:24:11;;;;;;;16.85;9.57;;;;;;;;;;5014466;28;20085;-73
2022/11/21 12:30:14;;;;;;;13.35;8.93;;;;;;;;;;5014707;28;20029;-73
2022/11/21 12:36:27;;;;;;;16.40;10.15;;;;;;;;;;5014576;28;20061;-73
2022/11/21 12:46:26;;;;;;;19.73;11.40;;;;;;;;;;4994960;28;20041;-72
2022/11/21 12:59:24;;;;;;;36.67;21.13;;;;;;;;;;4994527;28;20029;-72
2022/11/21 13:09:08;;;;;;;29.10;15.32;;;;;;;;;;4975159;28;20077;-73
2022/11/21 13:18:56;;;;;;;26.77;15.30;;;;;;;;;;5013888;28;20029;-73
2022/11/21 13:29:03;;;;;;;11.68;8.80;;;;;;;;;;5055337;28;20020;-73
2022/11/21 13:45:42;;;;;;;45.13;17.42;;;;;;;;;;5033387;28;20666;-73
2022/11/21 13:51:46;;;;;;;41.85;19.05;;;;;;;;;;5032903;28;20040;-73
2022/11/21 13:57:46;;;;;;;63.65;22.42;;;;;;;;;;5032636;28;20072;-72
2022/11/21 14:04:00;;;;;;;49.50;22.52;;;;;;;;;;5032578;28;20119;-72
2022/11/21 14:07:16;;;;;;;64.70;30.08;;;;;;;;;;5032954;28;20047;-72
2022/11/21 14:09:48;;;;;;;68.90;31.60;;;;;;;;;;5051035;28;20471;-73
2022/11/21 14:12:28;;;;;;;44.33;26.67;;;;;;;;;;5054978;28;20116;-72
2022/11/21 14:14:59;;;;;;;39.72;24.13;;;;;;;;;;5064837;28;20047;-71
2022/11/21 14:17:25;;;;;;;38.38;23.58;;;;;;;;;;5074760;28;20085;-73
2022/11/21 14:19:53;;;;;;;41.78;24.50;;;;;;;;;;5074305;28;20025;-74
2022/11/21 14:22:30;;;;;;;53.13;28.73;;;;;;;;;;5074212;28;20447;-72
2022/11/21 14:28:33;;;;;;;42.72;23.75;;;;;;;;;;5074238;28;20051;-72
2022/11/21 14:34:33;;;;;;;27.73;17.25;;;;;;;;;;5073392;28;20031;-73
2022/11/21 14:37:00;;;;;;;33.13;19.65;;;;;;;;;;5073357;28;20032;-73
2022/11/21 14:39:26;;;;;;;37.72;24.15;;;;;;;;;;5055961;28;20021;-72
2022/11/21 14:41:56;;;;;;;37.03;22.75;;;;;;;;;;5055739;28;20032;-73
2022/11/21 14:47:56;;;;;;;50.65;29.23;;;;;;;;;;5074005;28;20059;-73
2022/11/21 14:53:58;;;;;;;70.25;34.10;;;;;;;;;;5073928;28;20141;-74
2022/11/21 14:56:56;;;;;;;86.30;44.83;;;;;;;;;;5073603;28;20029;-73
2022/11/21 14:59:23;;;;;;;54.08;33.03;;;;;;;;;;5073582;28;20021;-73
2022/11/21 15:01:56;;;;;;;47.42;27.88;;;;;;;;;;5074297;28;20024;-73
2022/11/21 15:04:26;;;;;;;27.52;18.30;;;;;;;;;;5073433;28;20379;-73
2022/11/21 15:06:53;;;;;;;25.02;16.55;;;;;;;;;;5072481;28;20074;-73
2022/11/21 15:09:18;;;;;;;21.83;14.90;;;;;;;;;;5073938;28;20513;-73
2022/11/21 15:12:02;;;;;;;22.33;14.52;;;;;;;;;;5055199;28;20028;-73
2022/11/21 15:14:40;;;;;;;23.90;15.32;;;;;;;;;;5072338;28;20044;-72
2022/11/21 15:17:09;;;;;;;25.70;15.10;;;;;;;;;;5072811;28;20362;-73
2022/11/21 15:23:46;;;;;;;34.60;21.00;;;;;;;;;;5073497;28;20044;-73
2022/11/21 15:29:46;;;;;;;31.30;19.67;;;;;;;;;;5073381;28;20520;-72
2022/11/21 15:49:51;;;;;;;68.53;39.38;;;;;;;;;;5011720;28;20033;-73
2022/11/21 15:55:51;;;;;;;108.15;62.55;;;;;;;;;;5011615;28;20084;-72
2022/11/21 16:01:51;;;;;;;117.28;70.68;;;;;;;;;;5014944;28;20423;-73
2022/11/21 16:07:51;;;;;;;116.85;69.05;;;;;;;;;;5015070;28;20068;-73
2022/11/21 16:13:06;;;;;;;113.57;66.68;;;;;;;;;;5076680;28;20103;-73
2022/11/21 16:15:33;;;;;;;132.88;73.63;;;;;;;;;;5076531;28;20119;-73
2022/11/21 16:17:58;;;;;;;134.07;69.18;;;;;;;;;;5058404;28;20614;-73
2022/11/21 16:20:24;;;;;;;150.52;81.18;;;;;;;;;;5076202;28;20048;-73
2022/11/21 16:22:49;;;;;;;203.32;104.00;;;;;;;;;;5075862;28;20040;-73
2022/11/21 16:25:15;;;;;;;216.02;113.45;;;;;;;;;;5076807;28;20023;-73
2022/11/21 16:27:40;;;;;;;191.20;102.80;;;;;;;;;;5076440;28;20362;-73
2022/11/21 16:30:06;;;;;;;161.73;87.78;;;;;;;;;;5076843;28;20035;-73
2022/11/21 16:32:31;;;;;;;123.68;68.82;;;;;;;;;;5076425;28;20052;-72
2022/11/21 16:38:32;;;;;;;85.45;47.85;;;;;;;;;;5076345;28;20031;-73
2022/11/21 16:44:33;;;;;;;84.07;46.45;;;;;;;;;;5075900;28;20386;-73
2022/11/21 16:46:58;;;;;;;82.00;47.13;;;;;;;;;;5075147;28;20033;-72
2022/11/21 16:49:23;;;;;;;78.15;44.63;;;;;;;;;;5075910;28;20017;-72
2022/11/21 16:51:49;;;;;;;79.03;42.05;;;;;;;;;;5058199;28;20028;-73
2022/11/21 16:54:14;;;;;;;74.10;41.53;;;;;;;;;;5075969;28;20031;-72
2022/11/21 16:56:39;;;;;;;81.10;43.97;;;;;;;;;;5075954;28;20028;-73
2022/11/21 17:02:40;;;;;;;166.63;78.05;;;;;;;;;;5075794;28;20039;-72
2022/11/21 17:08:41;;;;;;;123.25;68.18;;;;;;;;;;5075181;28;20078;-74
2022/11/21 17:18:38;;;;;;;112.75;63.25;;;;;;;;;;5075573;28;20103;-73
2022/11/21 17:24:38;;;;;;;131.13;79.78;;;;;;;;;;5075139;28;20047;-74
2022/11/21 17:30:43;;;;;;;103.65;66.18;;;;;;;;;;5075307;28;20027;-73
2022/11/21 17:36:43;;;;;;;118.82;61.45;;;;;;;;;;5075199;28;20470;-73
2022/11/21 17:42:44;;;;;;;154.68;77.03;;;;;;;;;;5074750;28;20048;-74
2022/11/21 17:48:45;;;;;;;149.43;74.72;;;;;;;;;;5074949;28;20027;-73
2022/11/21 17:54:46;;;;;;;136.02;72.13;;;;;;;;;;5074835;28;20592;-74
2022/11/21 18:00:52;;;;;;;135.68;72.50;;;;;;;;;;5074697;28;20111;-74
2022/11/21 18:06:52;;;;;;;113.25;70.22;;;;;;;;;;5074610;28;20099;-74
2022/11/21 18:12:51;;;;;;;127.88;73.25;;;;;;;;;;5074450;28;20086;-73
2022/11/21 18:22:48;;;;;;;103.07;60.03;;;;;;;;;;5073489;28;20043;-74
2022/11/21 18:25:13;;;;;;;113.22;61.40;;;;;;;;;;5074271;28;20028;-74
2022/11/21 18:31:18;;;;;;;98.57;54.33;;;;;;;;;;5074198;28;20032;-73
2022/11/21 18:37:18;;;;;;;70.70;42.10;;;;;;;;;;5073879;28;20023;-73
2022/11/21 18:43:19;;;;;;;62.28;34.90;;;;;;;;;;5073903;28;20039;-73
2022/11/21 18:49:20;;;;;;;62.97;37.17;;;;;;;;;;5073988;28;20137;-73
2022/11/21 18:51:45;;;;;;;58.40;35.20;;;;;;;;;;5073453;28;20025;-73
2022/11/21 18:54:10;;;;;;;64.63;36.55;;;;;;;;;;5073584;28;20017;-74
2022/11/21 18:56:37;;;;;;;74.93;41.90;;;;;;;;;;5073449;28;20427;-74
2022/11/21 18:59:04;;;;;;;84.55;45.42;;;;;;;;;;5073387;28;20017;-74
2022/11/21 19:01:30;;;;;;;93.97;49.10;;;;;;;;;;5073445;28;20025;-74
2022/11/21 19:03:55;;;;;;;91.20;47.50;;;;;;;;;;5073058;28;20028;-74
2022/11/21 19:06:23;;;;;;;65.28;36.75;;;;;;;;;;5073087;28;20024;-75
2022/11/21 19:08:52;;;;;;;51.50;29.38;;;;;;;;;;5073187;28;20058;-73
2022/11/21 19:11:18;;;;;;;145.52;73.38;;;;;;;;;;5072975;28;20374;-74
2022/11/21 19:17:19;;;;;;;158.05;82.97;;;;;;;;;;5073468;28;20067;-74
2022/11/21 19:23:35;;;;;;;118.57;63.83;;;;;;;;;;5073327;28;20048;-73
2022/11/21 19:29:36;;;;;;;102.35;55.97;;;;;;;;;;5073630;28;20517;-73
2022/11/21 19:35:36;;;;;;;110.93;59.58;;;;;;;;;;5077530;28;20035;-73
2022/11/21 19:41:37;;;;;;;59.55;36.20;;;;;;;;;;5077415;28;20520;-73
2022/11/21 19:47:38;;;;;;;217.48;97.40;;;;;;;;;;5077292;28;20042;-73
2022/11/21 19:53:39;;;;;;;157.60;72.88;;;;;;;;;;5077154;28;20027;-74
2022/11/21 19:59:41;;;;;;;54.75;33.53;;;;;;;;;;5072912;28;20036;-73
2022/11/21 20:02:13;;;;;;;54.08;33.08;;;;;;;;;;5075025;28;20078;-74
2022/11/21 20:04:38;;;;;;;90.30;50.15;;;;;;;;;;5074656;28;20028;-74
2022/11/21 20:07:04;;;;;;;116.72;64.70;;;;;;;;;;5075047;28;20020;-73
2022/11/21 20:09:29;;;;;;;74.63;43.70;;;;;;;;;;5074893;28;20032;-74
2022/11/21 20:11:54;;;;;;;69.25;43.33;;;;;;;;;;5074780;28;20070;-73
2022/11/21 20:21:55;;;;;;;61.60;36.28;;;;;;;;;;5076636;28;20027;-75
2022/11/21 20:27:56;;;;;;;69.03;43.53;;;;;;;;;;5055004;28;20344;-73
2022/11/21 20:30:23;;;;;;;80.40;48.90;;;;;;;;;;5038080;28;20037;-73
2022/11/21 20:32:49;;;;;;;80.93;49.85;;;;;;;;;;5055869;28;20095;-73
2022/11/21 20:35:14;;;;;;;78.93;49.25;;;;;;;;;;5055777;28;20045;-75
2022/11/21 20:37:40;;;;;;;78.60;48.85;;;;;;;;;;5055586;28;20028;-73
2022/11/21 20:40:05;;;;;;;69.22;42.55;;;;;;;;;;5056027;28;20442;-73
2022/11/21 20:42:31;;;;;;;61.95;37.67;;;;;;;;;;5055675;28;20375;-74
2022/11/21 20:48:35;;;;;;;45.65;28.35;;;;;;;;;;5056164;28;20032;-74
2022/11/21 20:54:36;;;;;;;43.30;25.25;;;;;;;;;;5059970;28;20550;-72
2022/11/21 20:57:01;;;;;;;46.30;26.17;;;;;;;;;;5074129;28;20115;-72
2022/11/21 20:59:26;;;;;;;48.88;27.98;;;;;;;;;;5074371;28;20017;-73
2022/11/21 21:01:52;;;;;;;44.28;26.17;;;;;;;;;;5074430;28;20472;-74
2022/11/21 21:04:17;;;;;;;92.45;49.72;;;;;;;;;;5073461;28;20070;-74
2022/11/21 21:06:42;;;;;;;87.60;48.08;;;;;;;;;;5074309;28;20028;-73
2022/11/21 21:09:08;;;;;;;98.63;56.15;;;;;;;;;;5074222;28;20486;-74
2022/11/21 21:11:33;;;;;;;108.10;62.50;;;;;;;;;;5073837;28;20035;-72
2022/11/21 21:13:59;;;;;;;139.32;78.22;;;;;;;;;;5074186;28;20055;-73
2022/11/21 21:30:59;;;;;;;147.55;82.57;;;;;;;;;;5074100;28;20152;-73
2022/11/21 21:33:24;;;;;;;145.73;82.65;;;;;;;;;;5074614;28;20111;-73
2022/11/21 21:35:50;;;;;;;146.00;86.78;;;;;;;;;;5074777;28;20035;-75
2022/11/21 21:38:15;;;;;;;148.80;84.72;;;;;;;;;;5074773;28;20036;-74
2022/11/21 21:40:41;;;;;;;152.77;87.32;;;;;;;;;;5074340;28;20035;-74
2022/11/21 21:43:06;;;;;;;146.45;81.25;;;;;;;;;;5074688;28;20157;-73
2022/11/21 21:45:31;;;;;;;159.63;89.43;;;;;;;;;;5074736;28;20427;-74
2022/11/21 21:47:57;;;;;;;161.75;89.53;;;;;;;;;;5073788;22;20079;-74
2022/11/21 21:50:22;;;;;;;168.80;91.78;;;;;;;;;;5072640;28;20052;-74
2022/11/21 21:52:48;;;;;;;157.48;86.80;;;;;;;;;;5074060;28;20027;-72
2022/11/21 21:55:13;;;;;;;152.43;83.15;;;;;;;;;;5074020;28;20041;-72
2022/11/21 21:57:39;;;;;;;166.93;89.15;;;;;;;;;;5074096;28;20028;-72
2022/11/21 22:00:04;;;;;;;194.60;94.65;;;;;;;;;;5073890;28;20132;-72
2022/11/21 22:02:38;;;;;;;159.63;81.90;;;;;;;;;;5074016;28;20025;-74
2022/11/21 22:05:04;;;;;;;129.15;65.93;;;;;;;;;;5072900;28;20467;-72
2022/11/21 22:07:29;;;;;;;135.77;68.63;;;;;;;;;;5072865;28;20024;-72
2022/11/21 22:09:54;;;;;;;133.98;69.10;;;;;;;;;;5074256;28;20036;-72
2022/11/21 22:12:20;;;;;;;131.50;68.15;;;;;;;;;;5072718;28;20024;-74
2022/11/21 22:14:45;;;;;;;123.47;66.00;;;;;;;;;;5073851;28;20566;-72
2022/11/21 22:17:11;;;;;;;133.40;69.78;;;;;;;;;;5074516;28;20024;-71
2022/11/21 22:19:36;;;;;;;144.10;71.93;;;;;;;;;;5074297;28;20060;-73
2022/11/21 22:22:02;;;;;;;139.85;70.57;;;;;;;;;;5074165;28;20020;-73
2022/11/21 22:24:27;;;;;;;134.15;70.35;;;;;;;;;;5074371;28;20029;-73